Prairie Home, Missouri
Current Conditions -  °F | °C
As of 10:35 PM on Saturday 22 Nov 2014 (Local Time) from KVER Reporting Station
Overcast Overcast  
Wind Chill: 53°   Ceiling: 1400
Heat Index: 53°   Visibility: 10mi
Dew Point: 51°   Wind: 13mph
Humidity: 91%   Direction: 160°SSE
Pressure: 29.78"   Gusts: NA
Location:  38.81°N, 92.59°W
Report Text: KVER 230435Z AUTO 16011KT 10SM OVC014 12/10 A2978 RMK AO2 T01190104
Loading
Personal Weather Stations






























Interactive Weather Map New forecast layout! Learn more

10-Day Weather Forecast

Advertisements
Track Severe Weather on mobile